Time;durP1;ratioP1;P1;durP2;ratioP2;P2;SDS_P1;SDS_P2;PMS_P1;PMS_P2;Temp;Humidity;BMP_temperature;BMP_pressure;BME280_temperature;BME280_humidity;BME280_pressure;Samples;Min_cycle;Max_cycle;Signal;HPM_P1;HPM_P2
2022/01/24 00:02:02;;;;;;;57.90;51.10;;;;;;;-3.25;80.44;99544.59;109688;1273;22552;-74
2022/01/24 00:04:31;;;;;;;56.60;48.30;;;;;;;-3.28;80.25;99543.48;109457;1274;22645;-69
2022/01/24 00:06:59;;;;;;;46.50;41.30;;;;;;;-3.32;80.15;99543.96;109590;1274;23475;-70
2022/01/24 00:09:27;;;;;;;43.90;38.80;;;;;;;-3.37;80.20;99544.96;109688;1274;22426;-70
2022/01/24 00:27:58;;;;;;;58.70;52.30;;;;;;;-3.82;79.22;99537.84;109674;1274;22457;-70
2022/01/24 00:30:26;;;;;;;78.80;63.60;;;;;;;-3.94;78.76;99539.03;109668;1273;22462;-70
2022/01/24 00:32:55;;;;;;;75.30;63.80;;;;;;;-4.10;78.51;99541.09;109660;1274;22563;-69
2022/01/24 00:35:23;;;;;;;87.40;70.30;;;;;;;-4.25;78.33;99544.50;109685;1274;22482;-70
2022/01/24 00:37:51;;;;;;;76.90;62.20;;;;;;;-4.42;78.07;99549.61;109659;1273;22339;-72
2022/01/24 00:40:19;;;;;;;90.80;73.70;;;;;;;-4.62;78.10;99550.80;109684;1273;23202;-73
2022/01/24 00:42:55;;;;;;;77.60;61.30;;;;;;;-4.73;78.41;99545.69;109689;1274;22461;-70
2022/01/24 00:55:58;;;;;;;70.20;62.40;;;;;;;-5.04;77.82;99535.43;109661;1274;22477;-69
2022/01/24 00:58:26;;;;;;;62.10;55.30;;;;;;;-5.21;77.63;99539.79;109677;1274;23207;-69
2022/01/24 01:00:54;;;;;;;62.80;55.90;;;;;;;-5.42;77.56;99541.35;109680;1273;22519;-72
2022/01/24 01:03:24;;;;;;;63.30;54.80;;;;;;;-5.62;77.59;99547.08;109685;1273;22472;-69
2022/01/24 01:06:05;;;;;;;55.40;49.80;;;;;;;-5.83;77.53;99553.52;109697;1273;23322;-69
2022/01/24 01:20:02;;;;;;;53.00;47.70;;;;;;;-6.19;77.77;99540.92;109597;1274;22440;-69
2022/01/24 01:22:30;;;;;;;56.30;50.70;;;;;;;-6.25;77.88;99536.93;109654;1273;22710;-68
2022/01/24 01:24:59;;;;;;;57.30;51.20;;;;;;;-6.31;78.04;99539.05;109671;1273;22459;-67
2022/01/24 01:27:35;;;;;;;58.30;52.60;;;;;;;-6.35;78.17;99534.79;109589;1274;22553;-67
2022/01/24 01:30:15;;;;;;;65.50;58.90;;;;;;;-6.41;77.73;99534.58;109670;1274;22454;-67
2022/01/24 01:56:30;;;;;;;52.80;47.10;;;;;;;-6.36;77.99;99526.26;109697;1273;22492;-68
2022/01/24 01:58:58;;;;;;;52.60;47.40;;;;;;;-6.41;78.07;99527.09;109677;1274;22562;-69
2022/01/24 02:01:26;;;;;;;56.10;50.40;;;;;;;-6.47;77.76;99526.24;109708;1274;23275;-69
2022/01/24 02:03:57;;;;;;;55.00;49.50;;;;;;;-6.60;77.54;99527.68;109693;1273;23165;-69
2022/01/24 02:06:26;;;;;;;52.80;46.40;;;;;;;-6.75;77.55;99533.86;109692;1274;22502;-69
2022/01/24 02:08:59;;;;;;;57.30;51.50;;;;;;;-6.83;77.64;99540.10;109667;1274;22546;-69
2022/01/24 02:11:27;;;;;;;45.90;40.90;;;;;;;-6.82;77.89;99546.52;109661;1274;23208;-69
2022/01/24 02:13:58;;;;;;;79.70;71.20;;;;;;;-6.79;78.04;99544.13;109683;1274;22583;-68
2022/01/24 02:16:50;;;;;;;69.40;55.70;;;;;;;-6.73;78.14;99544.36;109595;1274;23215;-69
2022/01/24 02:24:42;;;;;;;55.10;49.40;;;;;;;-6.66;78.20;99551.74;109690;1272;22459;-69
2022/01/24 02:27:12;;;;;;;60.90;54.70;;;;;;;-6.68;78.07;99552.42;109492;1274;138123;-69
2022/01/24 02:32:14;;;;;;;55.50;50.00;;;;;;;-6.83;77.54;99553.91;109663;1273;22402;-70
2022/01/24 02:34:47;;;;;;;53.30;48.30;;;;;;;-6.94;77.66;99551.62;109561;1274;22578;-69
2022/01/24 02:37:20;;;;;;;49.20;44.40;;;;;;;-6.99;77.72;99550.14;109685;1273;22412;-70
2022/01/24 02:39:58;;;;;;;45.70;41.20;;;;;;;-7.01;77.91;99547.89;109583;1274;22437;-69
2022/01/24 02:48:28;;;;;;;42.10;38.00;;;;;;;-6.79;77.87;99546.02;109669;1274;22408;-69
2022/01/24 02:53:35;;;;;;;40.40;36.30;;;;;;;-6.74;77.44;99551.13;109697;1274;22489;-69
2022/01/24 02:56:04;;;;;;;40.20;36.10;;;;;;;-6.69;77.82;99550.14;109638;1274;22230;-69
2022/01/24 02:58:33;;;;;;;44.20;39.80;;;;;;;-6.56;78.21;99551.36;109640;1273;22449;-69
2022/01/24 03:01:06;;;;;;;45.90;41.40;;;;;;;-6.47;77.98;99548.80;109707;1274;22469;-69
2022/01/24 03:03:36;;;;;;;45.60;41.00;;;;;;;-6.43;77.93;99549.63;109565;1274;22485;-69
2022/01/24 03:06:05;;;;;;;52.50;46.90;;;;;;;-6.48;77.43;99549.77;109543;1274;138644;-66
2022/01/24 03:08:37;;;;;;;49.40;44.40;;;;;;;-6.66;76.50;99551.61;109696;1274;22402;-67
2022/01/24 03:11:05;;;;;;;50.80;45.80;;;;;;;-6.92;76.52;99551.23;109688;1274;22467;-67
2022/01/24 03:13:34;;;;;;;53.70;48.40;;;;;;;-7.12;76.85;99552.33;109687;1273;22435;-66
2022/01/24 03:16:05;;;;;;;60.90;55.00;;;;;;;-7.30;76.72;99552.52;109678;1273;22503;-67
2022/01/24 03:18:34;;;;;;;57.30;51.80;;;;;;;-7.39;77.26;99553.94;109681;1273;22446;-67
2022/01/24 03:21:02;;;;;;;56.40;51.00;;;;;;;-7.42;77.60;99555.44;109611;1274;22533;-67
2022/01/24 03:23:31;;;;;;;59.80;54.20;;;;;;;-7.44;77.66;99561.06;109683;1273;22483;-67
2022/01/24 03:26:00;;;;;;;66.50;60.00;;;;;;;-7.47;77.70;99566.18;109589;1274;22541;-67
2022/01/24 03:28:28;;;;;;;47.80;43.00;;;;;;;-7.50;77.41;99565.09;109673;1274;22507;-67
2022/01/24 03:30:57;;;;;;;53.60;45.50;;;;;;;-7.52;77.23;99572.11;109609;1274;22479;-67
2022/01/24 03:33:25;;;;;;;46.80;42.20;;;;;;;-7.51;77.24;99576.71;109597;1274;22723;-67
2022/01/24 03:35:53;;;;;;;50.90;45.90;;;;;;;-7.47;77.32;99581.20;109679;1273;22439;-66
2022/01/24 03:38:23;;;;;;;47.50;42.70;;;;;;;-7.46;76.91;99587.77;109687;1273;23326;-67
2022/01/24 03:40:51;;;;;;;44.50;40.10;;;;;;;-7.49;77.03;99587.64;109669;1274;22346;-67
2022/01/24 03:43:19;;;;;;;52.50;47.30;;;;;;;-7.52;76.87;99586.52;109674;1273;22688;-67
2022/01/24 03:46:09;;;;;;;74.10;66.50;;;;;;;-7.55;77.00;99590.83;109682;1273;22871;-67
2022/01/24 03:48:42;;;;;;;118.20;90.00;;;;;;;-7.61;76.83;99596.64;109702;1273;23178;-67
2022/01/24 03:51:11;;;;;;;110.90;89.40;;;;;;;-7.65;76.95;99598.56;109596;1272;22432;-67
2022/01/24 03:53:41;;;;;;;103.60;84.30;;;;;;;-7.62;77.02;99595.03;109664;1273;22488;-66
2022/01/24 03:56:11;;;;;;;116.70;86.60;;;;;;;-7.59;77.13;99596.10;109678;1273;22496;-66
2022/01/24 03:58:40;;;;;;;119.60;90.10;;;;;;;-7.56;77.14;99592.46;109665;1273;23145;-67
2022/01/24 04:01:09;;;;;;;77.20;69.30;;;;;;;-7.50;77.59;99596.20;109704;1274;23172;-66
2022/01/24 04:03:38;;;;;;;79.90;72.10;;;;;;;-7.40;77.97;99600.46;109673;1274;23205;-66
2022/01/24 04:06:07;;;;;;;89.80;78.50;;;;;;;-7.29;78.23;99602.43;109686;1274;22498;-68
2022/01/24 04:08:35;;;;;;;105.70;85.60;;;;;;;-7.21;78.10;99598.15;109671;1273;22569;-67
2022/01/24 04:11:10;;;;;;;105.10;85.70;;;;;;;-7.19;77.97;99602.75;109676;1274;22572;-68
2022/01/24 04:13:40;;;;;;;;;;;;;;;-7.20;77.63;99601.59;109705;1272;22585;-68
2022/01/24 04:16:26;;;;;;;121.50;94.60;;;;;;;-7.30;77.28;99606.47;109685;1273;23080;-68
2022/01/24 04:19:27;;;;;;;122.80;97.90;;;;;;;-7.34;77.63;99608.84;109671;1273;22563;-69
2022/01/24 04:21:50;;;;;;;151.80;105.00;;;;;;;-7.41;77.39;99598.14;109671;1272;22258;-69
2022/01/24 04:24:22;;;;;;;115.90;87.80;;;;;;;-7.50;76.99;99602.41;109675;1274;23107;-69
2022/01/24 04:26:50;;;;;;;147.60;108.70;;;;;;;-7.62;77.01;99594.31;109688;1273;22394;-70
2022/01/24 04:29:19;;;;;;;153.40;107.40;;;;;;;-7.67;77.34;99601.74;109671;1273;22455;-70
2022/01/24 04:31:48;;;;;;;77.40;69.60;;;;;;;-7.67;77.51;99597.71;109664;1271;23342;-69
2022/01/24 04:34:16;;;;;;;74.60;67.00;;;;;;;-7.63;77.43;99596.66;109679;1273;22494;-69
2022/01/24 04:36:45;;;;;;;59.40;53.10;;;;;;;-7.58;77.20;99606.13;109681;1273;23271;-69
2022/01/24 04:39:15;;;;;;;56.60;50.50;;;;;;;-7.59;76.97;99606.08;109678;1274;22385;-69
2022/01/24 04:41:47;;;;;;;57.70;51.60;;;;;;;-7.62;76.52;99613.07;109683;1273;23210;-69
2022/01/24 04:52:15;;;;;;;64.50;57.80;;;;;;;-7.90;76.77;99616.94;109665;1274;22509;-66
2022/01/24 04:54:44;;;;;;;56.30;50.70;;;;;;;-7.92;76.84;99613.05;109505;1274;22503;-66
2022/01/24 04:57:17;;;;;;;59.80;53.70;;;;;;;-7.90;76.93;99609.61;109675;1273;22359;-66
2022/01/24 04:59:47;;;;;;;60.80;54.80;;;;;;;-7.88;77.14;99612.39;109596;1274;22502;-69
2022/01/24 05:02:17;;;;;;;59.50;53.50;;;;;;;-7.87;76.77;99615.05;109693;1274;22546;-67
2022/01/24 05:04:45;;;;;;;64.30;58.00;;;;;;;-7.88;76.94;99615.00;109674;1274;22451;-66
2022/01/24 05:07:14;;;;;;;107.10;82.90;;;;;;;-7.86;77.34;99614.45;109590;1274;22415;-67
2022/01/24 05:12:19;;;;;;;124.30;99.00;;;;;;;-7.82;77.47;99611.81;109648;1272;22484;-67
2022/01/24 05:23:31;;;;;;;164.60;113.50;;;;;;;-7.91;77.61;99618.34;109690;1273;22573;-67
2022/01/24 05:26:01;;;;;;;272.50;206.30;;;;;;;-7.98;77.51;99625.14;109693;1274;23253;-67
2022/01/24 05:28:31;;;;;;;197.80;149.10;;;;;;;-8.01;77.51;99625.05;109683;1274;22453;-67
2022/01/24 05:30:59;;;;;;;174.80;115.30;;;;;;;-7.99;77.45;99621.20;109597;1273;22544;-67
2022/01/24 05:33:29;;;;;;;283.10;134.90;;;;;;;-7.94;77.45;99623.05;109667;1272;22474;-67
2022/01/24 05:35:57;;;;;;;326.60;150.40;;;;;;;-7.92;77.33;99622.80;109677;1273;23168;-67
2022/01/24 05:38:25;;;;;;;202.10;127.10;;;;;;;-7.90;77.36;99625.11;109685;1273;22457;-67
2022/01/24 05:40:53;;;;;;;232.70;124.10;;;;;;;-7.88;77.10;99626.45;109670;1274;22455;-67
2022/01/24 05:43:21;;;;;;;139.70;86.80;;;;;;;-7.83;77.40;99628.09;109674;1273;22476;-67
2022/01/24 05:45:50;;;;;;;99.20;79.30;;;;;;;-7.69;77.80;99631.05;109654;1273;22382;-66
2022/01/24 05:48:19;;;;;;;121.70;82.90;;;;;;;-7.51;78.23;99633.54;109677;1274;22486;-67
2022/01/24 05:50:47;;;;;;;191.90;108.80;;;;;;;-7.39;77.94;99631.58;109677;1274;22245;-67
2022/01/24 05:53:15;;;;;;;196.70;110.90;;;;;;;-7.29;77.80;99638.59;109513;1276;22442;-68
2022/01/24 05:55:43;;;;;;;164.70;99.30;;;;;;;-7.28;77.46;99637.57;109672;1273;23078;-67
2022/01/24 05:58:11;;;;;;;158.80;98.10;;;;;;;-7.27;77.50;99641.70;109666;1273;22503;-67
2022/01/24 06:00:39;;;;;;;146.50;95.40;;;;;;;-7.27;77.28;99646.55;109675;1274;22446;-68
2022/01/24 06:03:07;;;;;;;100.40;81.90;;;;;;;-7.31;77.15;99646.79;109583;1274;22504;-68
2022/01/24 06:05:35;;;;;;;94.30;79.20;;;;;;;-7.39;77.27;99650.50;109610;1273;22431;-68
2022/01/24 06:08:04;;;;;;;90.00;77.80;;;;;;;-7.42;77.59;99648.79;109676;1274;22887;-68
2022/01/24 06:10:32;;;;;;;92.00;77.80;;;;;;;-7.44;77.52;99649.52;109672;1272;23157;-68
2022/01/24 06:13:00;;;;;;;85.20;75.20;;;;;;;-7.51;77.00;99654.21;109660;1272;23381;-68
2022/01/24 06:15:28;;;;;;;86.20;77.50;;;;;;;-7.69;76.49;99656.19;109664;1273;22461;-68
2022/01/24 06:17:56;;;;;;;78.00;70.10;;;;;;;-7.84;76.91;99650.86;109639;1273;22566;-68
2022/01/24 06:20:24;;;;;;;82.70;73.80;;;;;;;-7.98;76.45;99653.55;109559;1273;138700;-68
2022/01/24 06:22:52;;;;;;;70.80;63.90;;;;;;;-8.09;76.76;99658.47;109654;1274;22546;-68
2022/01/24 06:25:23;;;;;;;67.40;60.60;;;;;;;-8.19;76.45;99653.27;109688;1273;23214;-68
2022/01/24 06:27:52;;;;;;;87.80;77.60;;;;;;;-8.27;76.54;99650.49;109666;1273;22450;-67
2022/01/24 06:30:20;;;;;;;97.70;87.40;;;;;;;-8.25;77.19;99652.42;109669;1272;22408;-68
2022/01/24 06:32:48;;;;;;;91.20;82.00;;;;;;;-8.15;77.36;99652.41;109701;1273;22462;-68
2022/01/24 06:35:16;;;;;;;74.00;65.60;;;;;;;-8.03;77.47;99654.29;109686;1274;22259;-69
2022/01/24 06:37:45;;;;;;;79.40;71.30;;;;;;;-7.95;77.31;99648.03;109695;1274;22409;-69
2022/01/24 06:40:14;;;;;;;69.40;62.40;;;;;;;-7.88;77.43;99652.63;109684;1272;23271;-68
2022/01/24 06:42:42;;;;;;;72.10;63.40;;;;;;;-7.89;76.33;99653.09;109669;1273;22337;-69
2022/01/24 06:45:10;;;;;;;94.00;78.10;;;;;;;-8.06;75.93;99660.17;109602;1274;22448;-68
2022/01/24 06:47:40;;;;;;;100.60;80.90;;;;;;;-8.24;75.98;99662.09;109678;1274;22174;-67
2022/01/24 06:50:08;;;;;;;111.30;83.60;;;;;;;-8.33;76.71;99669.70;109685;1273;22564;-67
2022/01/24 06:52:36;;;;;;;88.10;78.90;;;;;;;-8.30;76.84;99669.79;109672;1273;22587;-67
2022/01/24 06:55:05;;;;;;;81.30;72.70;;;;;;;-8.25;76.90;99677.19;109606;1274;22253;-68
2022/01/24 06:57:33;;;;;;;60.90;54.70;;;;;;;-8.20;76.78;99679.52;109674;1274;22428;-68
2022/01/24 07:00:04;;;;;;;65.10;58.30;;;;;;;-8.12;77.19;99676.54;109671;1272;23030;-68
2022/01/24 07:02:32;;;;;;;68.80;61.90;;;;;;;-7.94;77.67;99679.02;109669;1274;22552;-68
2022/01/24 07:05:00;;;;;;;71.20;64.10;;;;;;;-7.81;77.39;99680.64;109614;1272;22533;-67
2022/01/24 07:07:30;;;;;;;84.40;75.30;;;;;;;-7.78;76.79;99682.30;109673;1273;22525;-67
2022/01/24 07:09:58;;;;;;;87.90;78.80;;;;;;;-7.79;76.87;99680.42;109673;1273;22549;-67
2022/01/24 07:12:41;;;;;;;80.40;72.60;;;;;;;-7.79;77.09;99680.60;109690;1272;22681;-68
2022/01/24 07:15:13;;;;;;;74.70;67.30;;;;;;;-7.75;77.21;99684.14;109668;1274;22433;-67
2022/01/24 07:18:01;;;;;;;80.90;73.20;;;;;;;-7.69;77.48;99694.07;109662;1273;22693;-67
2022/01/24 07:20:35;;;;;;;66.50;60.40;;;;;;;-7.65;77.66;99691.39;109676;1273;22472;-67
2022/01/24 07:23:03;;;;;;;66.00;59.80;;;;;;;-7.63;77.37;99694.20;109566;1273;137908;-69
2022/01/24 07:25:32;;;;;;;74.20;66.80;;;;;;;-7.63;77.50;99695.37;109606;1273;23106;-68
2022/01/24 07:28:00;;;;;;;78.70;71.00;;;;;;;-7.57;77.63;99698.01;109675;1274;22342;-69
2022/01/24 07:30:28;;;;;;;80.80;72.50;;;;;;;-7.49;77.72;99699.38;109610;1274;22369;-69
2022/01/24 07:32:56;;;;;;;82.50;73.80;;;;;;;-7.44;77.67;99692.98;109674;1273;22597;-69
2022/01/24 07:35:24;;;;;;;84.70;73.70;;;;;;;-7.39;77.66;99694.84;109701;1273;22439;-69
2022/01/24 07:37:52;;;;;;;83.70;69.10;;;;;;;-7.33;77.45;99693.68;109684;1273;22444;-69
2022/01/24 07:40:22;;;;;;;67.90;60.20;;;;;;;-7.25;77.33;99701.77;109678;1273;22273;-69
2022/01/24 07:43:08;;;;;;;63.40;57.00;;;;;;;-7.18;77.20;99700.61;109658;1273;22444;-70
2022/01/24 07:45:42;;;;;;;63.40;57.00;;;;;;;-7.05;77.37;99703.39;109691;1272;22394;-68
2022/01/24 07:48:12;;;;;;;58.90;53.30;;;;;;;-6.90;77.70;99702.89;109689;1273;22417;-70
2022/01/24 07:50:43;;;;;;;224.40;130.60;;;;;;;-6.76;77.48;99699.60;109696;1274;23139;-68
2022/01/24 07:53:15;;;;;;;274.20;163.60;;;;;;;-6.52;77.75;99699.30;109544;1273;140368;-68
2022/01/24 07:56:05;;;;;;;409.70;288.50;;;;;;;-6.27;78.11;99694.13;109695;1272;22459;-69
2022/01/24 07:58:33;;;;;;;284.00;182.80;;;;;;;-6.05;78.38;99692.70;109679;1273;22404;-68
2022/01/24 08:01:03;;;;;;;252.30;170.50;;;;;;;-5.84;78.30;99692.94;109675;1272;22464;-69
2022/01/24 08:03:31;;;;;;;236.40;158.80;;;;;;;-5.70;78.08;99696.13;109659;1274;22572;-69
2022/01/24 08:05:59;;;;;;;227.80;154.60;;;;;;;-5.60;77.86;99703.73;109670;1272;22578;-68
2022/01/24 08:08:27;;;;;;;269.20;187.70;;;;;;;-5.50;77.92;99702.60;109566;1274;22553;-68
2022/01/24 08:11:00;;;;;;;275.90;190.40;;;;;;;-5.44;77.76;99705.85;109418;1274;22557;-68
2022/01/24 08:13:28;;;;;;;304.80;215.50;;;;;;;-5.40;77.58;99703.68;109649;1273;23157;-69
2022/01/24 08:15:57;;;;;;;307.80;214.10;;;;;;;-5.36;77.61;99702.96;109676;1274;23146;-68
2022/01/24 08:18:25;;;;;;;279.30;205.10;;;;;;;-5.30;77.71;99707.83;109657;1271;22452;-69
2022/01/24 08:20:53;;;;;;;264.70;192.30;;;;;;;-5.25;77.60;99707.48;109653;1272;22542;-69
2022/01/24 08:23:22;;;;;;;233.80;172.70;;;;;;;-5.22;77.50;99712.04;109646;1274;22405;-68
2022/01/24 08:25:54;;;;;;;243.00;172.60;;;;;;;-5.19;77.41;99710.20;109535;1274;22460;-68
2022/01/24 08:28:23;;;;;;;235.00;163.40;;;;;;;-5.16;77.35;99709.78;109640;1274;22365;-69
2022/01/24 08:30:52;;;;;;;206.10;147.10;;;;;;;-5.15;77.29;99706.63;109652;1274;22261;-70
2022/01/24 08:33:20;;;;;;;217.30;150.40;;;;;;;-5.14;77.27;99702.66;109664;1273;22315;-69
2022/01/24 08:35:51;;;;;;;196.00;135.90;;;;;;;-5.10;77.27;99707.59;109543;1274;22414;-69
2022/01/24 08:38:21;;;;;;;190.40;130.10;;;;;;;-5.08;77.20;99706.95;109525;1274;22389;-70
2022/01/24 08:40:56;;;;;;;192.20;134.30;;;;;;;-5.03;77.32;99707.19;109669;1274;22406;-69
2022/01/24 08:46:12;;;;;;;196.00;130.50;;;;;;;-4.86;77.51;99702.69;109178;1274;22479;-69
2022/01/24 08:48:42;;;;;;;190.90;129.40;;;;;;;-4.75;77.44;99709.33;109661;1272;22465;-69
2022/01/24 08:51:16;;;;;;;188.70;126.30;;;;;;;-4.65;77.43;99709.48;109667;1274;22615;-69
2022/01/24 08:54:06;;;;;;;180.40;117.70;;;;;;;-4.50;77.48;99715.52;109538;1274;139055;-69
2022/01/24 08:56:35;;;;;;;165.30;112.50;;;;;;;-4.33;77.19;99717.08;109541;1274;22431;-70
2022/01/24 08:59:05;;;;;;;133.10;97.60;;;;;;;-4.18;77.35;99712.95;109541;1273;22367;-69
2022/01/24 09:01:34;;;;;;;91.50;81.90;;;;;;;-4.04;77.32;99710.80;109656;1274;23401;-69
2022/01/24 09:04:03;;;;;;;78.20;70.00;;;;;;;-3.95;77.13;99711.54;109641;1274;22376;-69
2022/01/24 09:06:31;;;;;;;78.70;70.90;;;;;;;-3.88;77.01;99709.25;109648;1273;23828;-68
2022/01/24 09:09:03;;;;;;;83.90;74.70;;;;;;;-3.78;76.91;99711.27;109642;1272;22375;-70
2022/01/24 09:11:34;;;;;;;67.00;60.40;;;;;;;-3.68;76.91;99714.47;109665;1274;22403;-71
2022/01/24 09:14:05;;;;;;;62.20;56.30;;;;;;;-3.61;76.79;99715.56;109646;1274;22431;-69
2022/01/24 09:16:33;;;;;;;59.60;53.90;;;;;;;-3.52;76.57;99722.03;109650;1271;22463;-70
2022/01/24 09:19:03;;;;;;;59.20;53.30;;;;;;;-3.42;76.72;99726.19;109643;1273;22539;-68
2022/01/24 09:21:34;;;;;;;510.40;103.00;;;;;;;-3.32;76.79;99718.92;109654;1273;22509;-68
2022/01/24 09:24:04;;;;;;;60.20;53.90;;;;;;;-3.22;76.54;99714.70;109552;1274;22951;-69
2022/01/24 09:26:33;;;;;;;55.70;50.10;;;;;;;-3.21;76.25;99711.75;109547;1274;23138;-68
2022/01/24 09:29:02;;;;;;;58.80;53.30;;;;;;;-3.15;76.35;99706.09;109651;1271;22449;-69
2022/01/24 09:31:31;;;;;;;66.80;59.60;;;;;;;-3.05;76.21;99699.66;109654;1273;22597;-69
2022/01/24 09:34:00;;;;;;;74.50;66.80;;;;;;;-2.95;76.13;99699.71;109647;1274;22425;-69
2022/01/24 09:36:28;;;;;;;74.10;66.60;;;;;;;-2.86;76.27;99707.32;109529;1274;138107;-69
2022/01/24 09:38:56;;;;;;;73.40;66.10;;;;;;;-2.76;76.18;99706.35;109665;1272;22512;-69
2022/01/24 09:41:25;;;;;;;70.90;64.40;;;;;;;-2.69;75.82;99705.62;109648;1274;22528;-69
2022/01/24 09:43:53;;;;;;;61.20;55.60;;;;;;;-2.62;75.86;99705.55;109658;1272;22618;-68
2022/01/24 09:46:22;;;;;;;51.00;46.50;;;;;;;-2.51;75.81;99705.95;109656;1274;22502;-69
2022/01/24 09:48:51;;;;;;;49.20;44.60;;;;;;;-2.46;75.57;99704.69;109654;1274;23105;-67
2022/01/24 09:51:20;;;;;;;52.00;47.20;;;;;;;-2.45;75.61;99706.85;109638;1273;22500;-66
2022/01/24 09:53:49;;;;;;;251.00;55.10;;;;;;;-2.42;75.71;99711.03;109530;1274;22423;-67
2022/01/24 09:56:18;;;;;;;44.80;40.70;;;;;;;-2.43;75.28;99710.06;109666;1274;22486;-69
2022/01/24 09:58:47;;;;;;;70.70;43.80;;;;;;;-2.39;75.39;99707.02;109673;1274;22428;-70
2022/01/24 10:01:18;;;;;;;42.60;38.00;;;;;;;-2.30;75.23;99701.33;109671;1274;22492;-69
2022/01/24 10:04:16;;;;;;;39.90;36.20;;;;;;;-2.17;75.34;99702.77;109548;1274;22513;-69
2022/01/24 10:07:07;;;;;;;43.20;39.20;;;;;;;-2.08;74.99;99693.76;109546;1273;138207;-68
2022/01/24 10:09:40;;;;;;;88.10;46.70;;;;;;;-1.97;75.05;99692.09;109635;1274;22366;-68
2022/01/24 10:16:24;;;;;;;46.40;42.00;;;;;;;-1.88;74.81;99688.27;109641;1274;23324;-68
2022/01/24 10:18:11;;;;;;;47.20;42.60;;;;;;;-1.53;74.90;99679.23;109541;1272;22416;-68
2022/01/24 10:20:41;;;;;;;44.30;40.20;;;;;;;-1.40;74.75;99673.27;109647;1274;23191;-68
2022/01/24 10:23:24;;;;;;;43.30;39.30;;;;;;;-1.23;74.24;99674.15;109643;1274;22503;-67
2022/01/24 10:26:04;;;;;;;49.70;44.70;;;;;;;-1.06;74.59;99674.55;109661;1272;22452;-69
2022/01/24 10:28:40;;;;;;;45.70;41.40;;;;;;;-0.91;74.34;99671.97;109635;1274;22466;-68
2022/01/24 10:31:10;;;;;;;39.40;35.70;;;;;;;-0.80;74.38;99672.21;109660;1273;22544;-69
2022/01/24 10:34:08;;;;;;;38.40;35.00;;;;;;;-0.69;73.93;99669.17;109665;1273;22476;-69
2022/01/24 10:36:52;;;;;;;39.40;35.50;;;;;;;-0.65;73.72;99665.91;109649;1274;22585;-68
2022/01/24 10:39:31;;;;;;;41.30;37.50;;;;;;;-0.62;73.56;99660.27;109707;1274;23052;-69
2022/01/24 10:44:56;;;;;;;;;;;;;;;-0.51;73.65;99650.08;109675;1274;22613;-68
2022/01/24 10:47:29;;;;;;;42.40;38.50;;;;;;;-0.54;72.94;99650.29;109668;1273;22452;-67
2022/01/24 10:50:00;;;;;;;45.70;41.30;;;;;;;-0.54;73.30;99642.18;109560;1274;22548;-68
2022/01/24 10:52:31;;;;;;;39.30;35.50;;;;;;;-0.53;73.23;99639.02;109663;1274;22459;-67
2022/01/24 10:55:13;;;;;;;41.20;37.30;;;;;;;-0.59;72.99;99635.36;109667;1273;22449;-67
2022/01/24 10:57:44;;;;;;;42.40;38.50;;;;;;;-0.53;73.16;99635.11;109641;1273;22437;-67
2022/01/24 11:00:22;;;;;;;45.20;40.90;;;;;;;-0.41;73.30;99636.48;109696;1273;22510;-67
2022/01/24 11:02:53;;;;;;;39.40;35.80;;;;;;;-0.25;73.14;99631.38;109542;1273;138538;-68
2022/01/24 11:05:25;;;;;;;40.50;36.90;;;;;;;-0.10;73.09;99633.67;109568;1274;22663;-67
2022/01/24 11:08:04;;;;;;;38.80;35.10;;;;;;;0.03;72.58;99632.46;109677;1274;23620;-67
2022/01/24 11:10:36;;;;;;;1801.80;305.40;;;;;;;0.16;72.76;99637.05;109642;1273;22515;-67
2022/01/24 11:13:06;;;;;;;62.40;43.60;;;;;;;0.21;72.38;99630.61;109576;1274;23262;-68
2022/01/24 11:15:38;;;;;;;40.90;36.90;;;;;;;0.21;71.90;99626.90;109598;1274;23144;-68
2022/01/24 11:18:06;;;;;;;41.70;37.70;;;;;;;0.23;71.88;99621.50;109661;1273;23628;-68
2022/01/24 11:20:40;;;;;;;41.10;37.00;;;;;;;0.32;71.94;99619.30;109669;1273;22535;-68
2022/01/24 11:23:08;;;;;;;34.70;31.30;;;;;;;0.35;71.91;99617.32;109673;1273;22564;-68
2022/01/24 11:25:47;;;;;;;33.70;30.20;;;;;;;0.43;71.52;99620.38;109664;1273;23602;-68
2022/01/24 11:28:15;;;;;;;32.70;29.60;;;;;;;0.48;71.40;99620.20;109688;1273;23128;-68
2022/01/24 11:31:17;;;;;;;34.00;30.90;;;;;;;0.56;71.42;99613.73;109675;1273;23001;-66
2022/01/24 11:33:55;;;;;;;46.20;41.90;;;;;;;0.67;70.73;99610.77;109669;1273;22986;-66
2022/01/24 11:36:38;;;;;;;36.50;33.10;;;;;;;0.75;70.76;99611.45;109536;1274;138135;-67
2022/01/24 11:39:07;;;;;;;37.30;33.50;;;;;;;0.86;70.17;99610.55;109673;1274;22784;-68
2022/01/24 11:41:39;;;;;;;38.40;34.30;;;;;;;0.98;70.25;99614.34;109678;1273;22484;-67
2022/01/24 11:44:16;;;;;;;41.90;37.80;;;;;;;1.06;70.12;99609.50;109577;1274;22444;-66
2022/01/24 11:46:55;;;;;;;35.60;32.30;;;;;;;1.14;70.11;99606.39;109659;1274;22550;-67
2022/01/24 11:49:25;;;;;;;32.40;29.40;;;;;;;1.23;70.16;99598.52;109674;1273;23405;-66
2022/01/24 11:52:14;;;;;;;33.30;30.00;;;;;;;1.33;70.09;99598.77;109673;1274;22357;-66
2022/01/24 11:54:47;;;;;;;74.50;68.10;;;;;;;1.33;69.72;99595.67;109670;1274;22434;-66
2022/01/24 11:57:34;;;;;;;37.30;33.80;;;;;;;1.28;69.40;99590.25;109674;1273;22397;-68
2022/01/24 12:00:06;;;;;;;77.60;69.60;;;;;;;1.23;69.47;99592.32;109670;1272;22435;-67
2022/01/24 12:02:43;;;;;;;118.80;95.30;;;;;;;1.18;69.49;99588.85;109675;1274;22455;-67
2022/01/24 12:05:25;;;;;;;165.70;118.10;;;;;;;1.11;69.35;99591.88;109681;1273;22425;-68
2022/01/24 12:07:59;;;;;;;82.70;74.00;;;;;;;1.07;69.06;99597.38;109553;1273;138231;-67
2022/01/24 12:10:47;;;;;;;55.50;50.30;;;;;;;1.06;69.17;99594.51;109652;1273;22875;-66
2022/01/24 12:13:26;;;;;;;51.60;45.90;;;;;;;1.01;68.66;99593.34;109668;1273;22435;-66
2022/01/24 12:16:00;;;;;;;49.60;42.20;;;;;;;0.94;68.96;99595.16;109674;1274;22461;-66
2022/01/24 12:18:29;;;;;;;47.50;42.60;;;;;;;0.92;68.83;99594.88;109661;1274;22509;-66
2022/01/24 12:21:07;;;;;;;47.50;42.50;;;;;;;0.89;68.75;99590.77;109659;1273;22364;-68
2022/01/24 12:23:43;;;;;;;45.50;41.20;;;;;;;0.89;68.77;99580.33;109671;1274;23196;-66
2022/01/24 12:26:47;;;;;;;43.00;38.80;;;;;;;0.89;68.45;99574.81;109655;1274;22980;-68
2022/01/24 12:29:21;;;;;;;51.90;46.80;;;;;;;0.89;68.12;99569.54;109595;1274;22398;-66
2022/01/24 12:31:53;;;;;;;52.90;47.60;;;;;;;0.85;68.10;99571.30;109673;1274;22493;-68
2022/01/24 12:34:28;;;;;;;59.00;53.40;;;;;;;0.87;68.04;99575.24;109515;1274;22995;-66
2022/01/24 12:37:29;;;;;;;55.70;49.30;;;;;;;1.03;68.30;99569.90;109675;1274;23274;-66
2022/01/24 12:40:07;;;;;;;50.30;45.00;;;;;;;1.19;67.74;99573.91;109679;1273;23012;-67
2022/01/24 12:48:19;;;;;;;43.90;39.40;;;;;;;1.79;67.59;99578.59;109650;1274;22961;-67
2022/01/24 12:50:51;;;;;;;50.20;45.20;;;;;;;1.87;67.09;99573.30;109553;1274;137553;-67
2022/01/24 12:53:25;;;;;;;69.50;62.20;;;;;;;1.99;67.25;99572.34;109659;1274;22478;-66
2022/01/24 12:56:02;;;;;;;61.90;55.70;;;;;;;2.11;67.42;99573.80;109650;1274;22476;-66
2022/01/24 12:58:33;;;;;;;48.70;44.10;;;;;;;2.29;67.38;99577.45;109668;1273;22553;-66
2022/01/24 13:01:01;;;;;;;49.20;44.50;;;;;;;2.40;66.89;99577.80;109586;1275;22462;-66
2022/01/24 13:03:50;;;;;;;54.70;49.10;;;;;;;2.50;66.90;99574.56;109675;1274;22528;-66
2022/01/24 13:06:20;;;;;;;48.80;44.10;;;;;;;2.62;66.83;99571.52;109521;1274;22393;-65
2022/01/24 13:09:11;;;;;;;1999.90;373.70;;;;;;;2.78;67.09;99572.29;109675;1274;22423;-66
2022/01/24 13:11:52;;;;;;;67.40;56.60;;;;;;;2.98;66.64;99569.76;109649;1274;22605;-67
2022/01/24 13:14:28;;;;;;;56.90;49.50;;;;;;;3.01;65.94;99575.28;109654;1274;23477;-67
2022/01/24 13:22:54;;;;;;;82.30;73.60;;;;;;;2.49;65.52;99572.31;109652;1274;22614;-67
2022/01/24 13:25:27;;;;;;;67.20;61.00;;;;;;;2.21;65.67;99576.02;109585;1273;22390;-67
2022/01/24 13:27:57;;;;;;;43.50;39.30;;;;;;;2.01;65.80;99573.88;109545;1274;138280;-68